createdAt,value
2018-10-06T00:00:23.228Z,4.27
2018-10-06T00:02:54.737Z,6.03
2018-10-06T00:05:26.061Z,9.53
2018-10-06T00:07:57.409Z,5.20
2018-10-06T00:10:29.063Z,6.10
2018-10-06T00:13:00.344Z,5.73
2018-10-06T00:15:31.364Z,7.17
2018-10-06T00:18:03.042Z,6.70
2018-10-06T00:20:34.156Z,7.33
2018-10-06T00:23:05.569Z,9.73
2018-10-06T00:25:37.056Z,5.73
2018-10-06T00:28:08.508Z,6.00
2018-10-06T00:30:39.873Z,4.60
2018-10-06T00:33:10.884Z,7.23
2018-10-06T00:35:42.020Z,6.43
2018-10-06T00:38:13.258Z,6.03
2018-10-06T00:40:44.281Z,5.23
2018-10-06T00:43:15.445Z,6.90
2018-10-06T00:45:46.628Z,5.80
2018-10-06T00:48:17.830Z,7.10
2018-10-06T00:50:48.868Z,7.27
2018-10-06T00:53:20.318Z,6.87
2018-10-06T00:55:51.611Z,4.13
2018-10-06T00:58:23.281Z,5.27
2018-10-06T01:00:55.314Z,5.13
2018-10-06T01:03:26.579Z,6.63
2018-10-06T01:05:57.821Z,7.13
2018-10-06T01:08:28.937Z,6.83
2018-10-06T01:11:00.117Z,6.03
2018-10-06T01:13:31.320Z,7.23
2018-10-06T01:16:02.776Z,6.00
2018-10-06T01:18:33.916Z,6.93
2018-10-06T01:21:05.362Z,6.20
2018-10-06T01:23:36.853Z,4.53
2018-10-06T01:26:07.932Z,9.00
2018-10-06T01:28:39.103Z,5.90
2018-10-06T01:31:10.311Z,6.13
2018-10-06T01:33:41.453Z,7.63
2018-10-06T01:36:12.913Z,6.10
2018-10-06T01:38:44.811Z,8.17
2018-10-06T01:41:16.217Z,5.67
2018-10-06T01:43:47.412Z,8.60
2018-10-06T01:46:18.768Z,6.60
2018-10-06T01:48:50.452Z,6.23
2018-10-06T01:51:22.025Z,7.50
2018-10-06T01:53:53.675Z,6.20
2018-10-06T01:56:24.748Z,7.87
2018-10-06T01:58:56.151Z,8.47
2018-10-06T02:01:27.503Z,7.63
2018-10-06T02:03:58.502Z,10.03
2018-10-06T02:06:29.505Z,9.47
2018-10-06T02:09:00.860Z,7.43
2018-10-06T02:11:32.076Z,7.73
2018-10-06T02:14:03.323Z,6.20
2018-10-06T02:16:34.943Z,6.17
2018-10-06T02:19:06.240Z,4.30
2018-10-06T02:21:37.701Z,5.70
2018-10-06T02:24:09.086Z,6.07
2018-10-06T02:26:40.401Z,6.00
2018-10-06T02:29:11.421Z,4.17
2018-10-06T02:31:42.772Z,8.43
2018-10-06T02:34:13.784Z,7.10
2018-10-06T02:36:44.956Z,7.33
2018-10-06T02:39:16.361Z,8.67
2018-10-06T02:41:47.354Z,5.57
2018-10-06T02:44:18.537Z,5.40
2018-10-06T02:46:49.762Z,6.87
2018-10-06T02:49:20.944Z,5.03
2018-10-06T02:51:52.324Z,5.57
2018-10-06T02:54:23.635Z,7.40
2018-10-06T02:56:55.165Z,5.30
2018-10-06T02:59:29.240Z,7.70
2018-10-06T03:02:01.081Z,6.00
2018-10-06T03:04:32.421Z,6.10
2018-10-06T03:07:03.619Z,6.93
2018-10-06T03:09:35.561Z,10.23
2018-10-06T03:12:06.621Z,6.40
2018-10-06T03:14:37.970Z,8.17
2018-10-06T03:17:09.019Z,5.27
2018-10-06T03:19:40.156Z,6.77
2018-10-06T03:22:11.532Z,7.03
2018-10-06T03:24:43.004Z,5.93
2018-10-06T03:27:14.287Z,5.70
2018-10-06T03:29:45.502Z,5.23
2018-10-06T03:32:16.676Z,5.17
2018-10-06T03:34:47.881Z,6.77
2018-10-06T03:37:19.065Z,7.97
2018-10-06T03:39:50.277Z,4.57
2018-10-06T03:42:21.265Z,5.67
2018-10-06T03:44:52.260Z,6.13
2018-10-06T03:47:23.502Z,5.70
2018-10-06T03:49:54.837Z,6.30
2018-10-06T03:52:25.840Z,5.33
2018-10-06T03:54:57.038Z,5.50
2018-10-06T03:57:28.428Z,5.70
2018-10-06T03:59:59.637Z,4.30
2018-10-06T04:02:30.817Z,5.00
2018-10-06T04:05:01.983Z,5.77
2018-10-06T04:07:34.029Z,6.70
2018-10-06T04:10:05.392Z,7.17
2018-10-06T04:12:36.724Z,5.20
2018-10-06T04:15:08.326Z,5.63
2018-10-06T04:17:39.316Z,6.83
2018-10-06T04:20:10.742Z,6.43
2018-10-06T04:22:41.987Z,6.77
2018-10-06T04:25:13.329Z,6.27
2018-10-06T04:27:44.684Z,7.50
2018-10-06T04:30:19.044Z,5.17
2018-10-06T04:32:50.392Z,6.53
2018-10-06T04:35:22.035Z,6.17
2018-10-06T04:37:53.395Z,7.23
2018-10-06T04:40:24.558Z,6.30
2018-10-06T04:42:55.752Z,6.80
2018-10-06T04:45:26.779Z,6.83
2018-10-06T04:47:58.168Z,6.33
2018-10-06T04:50:29.520Z,5.33
2018-10-06T04:53:00.532Z,6.03
2018-10-06T04:55:31.924Z,7.60
2018-10-06T04:58:03.373Z,7.40
2018-10-06T05:00:34.979Z,10.73
2018-10-06T05:03:06.260Z,7.57
2018-10-06T05:05:37.252Z,8.13
2018-10-06T05:08:08.509Z,7.10
2018-10-06T05:10:39.685Z,7.23
2018-10-06T05:13:10.841Z,5.63
2018-10-06T05:15:42.308Z,9.80
2018-10-06T05:18:13.635Z,6.00
2018-10-06T05:20:44.884Z,7.43
2018-10-06T05:23:16.029Z,9.20
2018-10-06T05:25:47.393Z,7.07
2018-10-06T05:28:18.581Z,7.20
2018-10-06T05:30:49.617Z,7.03
2018-10-06T05:33:20.979Z,9.57
2018-10-06T05:35:51.980Z,7.87
2018-10-06T05:38:23.480Z,8.03
2018-10-06T05:40:54.552Z,8.00
2018-10-06T05:43:25.712Z,8.97
2018-10-06T05:45:57.180Z,7.60
2018-10-06T05:48:28.300Z,11.03
2018-10-06T05:50:59.701Z,8.57
2018-10-06T05:53:30.696Z,8.43
2018-10-06T05:56:02.315Z,12.23
2018-10-06T05:58:33.688Z,11.07
2018-10-06T06:01:04.848Z,9.60
2018-10-06T06:03:35.877Z,9.53
2018-10-06T06:06:07.245Z,10.27
2018-10-06T06:08:38.424Z,8.93
2018-10-06T06:11:09.412Z,6.40
2018-10-06T06:13:40.456Z,9.83
2018-10-06T06:16:11.818Z,10.13
2018-10-06T06:18:43.289Z,8.87
2018-10-06T06:21:14.381Z,13.23
2018-10-06T06:23:45.422Z,9.80
2018-10-06T06:26:16.752Z,9.13
2018-10-06T06:28:48.020Z,10.47
2018-10-06T06:31:19.209Z,12.63
2018-10-06T06:33:50.847Z,11.20
2018-10-06T06:36:22.144Z,12.83
2018-10-06T06:38:53.284Z,14.33
2018-10-06T06:41:24.735Z,9.97
2018-10-06T06:43:56.154Z,10.13
2018-10-06T06:46:27.478Z,11.53
2018-10-06T06:48:58.686Z,8.27
2018-10-06T06:51:30.075Z,10.40
2018-10-06T06:54:01.320Z,11.90
2018-10-06T06:56:32.668Z,12.57
2018-10-06T06:59:04.836Z,12.50
2018-10-06T07:01:36.038Z,10.93
2018-10-06T07:04:07.428Z,15.67
2018-10-06T07:06:39.089Z,11.33
2018-10-06T07:09:10.248Z,9.27
2018-10-06T07:11:41.581Z,10.40
2018-10-06T07:14:13.617Z,8.77
2018-10-06T07:16:45.316Z,11.80
2018-10-06T07:19:16.344Z,10.90
2018-10-06T07:21:47.696Z,14.27
2018-10-06T07:24:18.732Z,9.73
2018-10-06T07:26:49.924Z,11.50
2018-10-06T07:29:21.295Z,11.00
2018-10-06T07:31:52.278Z,14.07
2018-10-06T07:34:23.481Z,13.40
2018-10-06T07:36:54.643Z,9.53
2018-10-06T07:39:25.763Z,8.63
2018-10-06T07:41:57.276Z,8.57
2018-10-06T07:44:28.907Z,9.03
2018-10-06T07:47:00.492Z,12.77
2018-10-06T07:49:31.781Z,9.47
2018-10-06T07:52:02.990Z,12.67
2018-10-06T07:54:34.216Z,9.17
2018-10-06T07:57:05.465Z,14.90
2018-10-06T07:59:36.599Z,11.13
2018-10-06T08:02:07.803Z,11.73
2018-10-06T08:04:39.647Z,11.67
2018-10-06T08:07:10.764Z,18.43
2018-10-06T08:09:42.264Z,11.47
2018-10-06T08:12:13.545Z,11.87
2018-10-06T08:14:44.798Z,10.43
2018-10-06T08:17:16.065Z,9.70
2018-10-06T08:19:47.292Z,12.87
2018-10-06T08:22:18.748Z,9.70
2018-10-06T08:24:50.421Z,11.23
2018-10-06T08:27:21.662Z,17.33
2018-10-06T08:29:53.048Z,8.07
2018-10-06T08:32:24.031Z,10.27
2018-10-06T08:39:43.251Z,12.80
2018-10-06T08:42:14.436Z,11.03
2018-10-06T08:44:45.428Z,11.90
2018-10-06T08:47:16.661Z,8.97
2018-10-06T08:49:48.023Z,7.57
2018-10-06T08:52:19.684Z,11.30
2018-10-06T08:54:50.828Z,9.77
2018-10-06T08:57:22.172Z,8.63
2018-10-06T08:59:53.362Z,13.33
2018-10-06T09:02:24.547Z,12.97
2018-10-06T09:04:55.758Z,14.30
2018-10-06T09:07:27.247Z,12.73
2018-10-06T09:09:58.356Z,8.83
2018-10-06T09:12:29.715Z,8.47
2018-10-06T09:15:00.892Z,8.33
2018-10-06T09:17:32.134Z,10.57
2018-10-06T09:20:03.801Z,10.00
2018-10-06T09:22:35.101Z,8.87
2018-10-06T09:25:06.434Z,10.87
2018-10-06T09:27:37.474Z,9.07
2018-10-06T09:30:08.679Z,9.10
2018-10-06T09:32:40.092Z,6.50
2018-10-06T09:35:11.237Z,10.70
2018-10-06T09:37:42.713Z,8.23
2018-10-06T09:40:13.809Z,10.27
2018-10-06T09:42:45.084Z,8.23
2018-10-06T09:45:16.217Z,9.63
2018-10-06T09:47:47.400Z,6.57
2018-10-06T09:50:19.376Z,8.23
2018-10-06T09:52:50.604Z,10.50
2018-10-06T09:55:21.972Z,11.93
2018-10-06T09:57:53.438Z,6.97
2018-10-06T10:00:29.466Z,9.50
2018-10-06T10:03:05.557Z,12.23
2018-10-06T10:05:41.555Z,11.27
2018-10-06T10:08:12.853Z,10.03
2018-10-06T10:10:44.079Z,7.97
2018-10-06T10:13:15.228Z,5.93
2018-10-06T10:15:46.725Z,10.70
2018-10-06T10:18:17.996Z,6.57
2018-10-06T10:20:49.268Z,8.13
2018-10-06T10:23:20.721Z,10.60
2018-10-06T10:25:51.783Z,8.13
2018-10-06T10:28:23.028Z,8.73
2018-10-06T10:30:54.357Z,7.40
2018-10-06T10:33:25.367Z,6.40
2018-10-06T10:35:56.555Z,8.57
2018-10-06T10:38:27.571Z,7.27
2018-10-06T10:40:58.996Z,5.83
2018-10-06T10:43:30.101Z,7.83
2018-10-06T10:46:01.392Z,7.30
2018-10-06T10:48:32.987Z,7.33
2018-10-06T10:51:04.300Z,7.90
2018-10-06T10:53:35.332Z,6.33
2018-10-06T10:56:06.681Z,6.53
2018-10-06T10:58:37.673Z,8.10
2018-10-06T11:01:08.945Z,8.13
2018-10-06T11:03:40.462Z,6.90
2018-10-06T11:06:12.111Z,5.30
2018-10-06T11:08:43.707Z,10.83
2018-10-06T11:11:15.077Z,7.93
2018-10-06T11:13:46.182Z,7.77
2018-10-06T11:16:17.204Z,7.83
2018-10-06T11:18:49.246Z,6.03
2018-10-06T11:21:20.374Z,6.10
2018-10-06T11:23:51.607Z,10.20
2018-10-06T11:26:22.936Z,4.97
2018-10-06T11:28:53.979Z,7.27
2018-10-06T11:31:25.621Z,9.40
2018-10-06T11:33:57.634Z,8.37
2018-10-06T11:36:35.269Z,7.67
2018-10-06T11:39:08.076Z,8.73
2018-10-06T11:41:39.464Z,8.40
2018-10-06T11:44:10.554Z,8.00
2018-10-06T11:46:42.201Z,11.17
2018-10-06T11:49:13.497Z,8.40
2018-10-06T11:51:44.692Z,9.93
2018-10-06T11:54:15.883Z,6.30
2018-10-06T11:56:46.897Z,5.70
2018-10-06T11:59:17.888Z,5.57
2018-10-06T12:01:49.335Z,5.93
2018-10-06T12:04:20.428Z,4.50
2018-10-06T12:06:51.869Z,6.40
2018-10-06T12:09:23.286Z,9.37
2018-10-06T12:11:54.632Z,5.57
2018-10-06T12:14:25.805Z,7.73
2018-10-06T12:16:57.014Z,6.53
2018-10-06T12:19:28.691Z,7.92
2018-10-06T12:21:59.956Z,8.67
2018-10-06T12:24:31.168Z,6.77
2018-10-06T12:27:02.413Z,6.53
2018-10-06T12:29:33.828Z,5.95
2018-10-06T12:32:05.151Z,9.17
2018-10-06T12:34:37.762Z,5.43
2018-10-06T12:37:08.891Z,6.33
2018-10-06T12:39:40.198Z,8.63
2018-10-06T12:42:11.273Z,6.40
2018-10-06T12:44:42.672Z,5.45
2018-10-06T12:47:13.889Z,5.60
2018-10-06T12:49:45.052Z,9.45
2018-10-06T12:52:17.033Z,8.87
2018-10-06T12:54:48.032Z,6.93
2018-10-06T12:57:19.384Z,5.83
2018-10-06T12:59:50.592Z,6.40
2018-10-06T13:02:21.871Z,7.73
2018-10-06T13:04:53.182Z,7.47
2018-10-06T13:07:24.411Z,8.53
2018-10-06T13:09:55.618Z,7.50
2018-10-06T13:12:26.739Z,5.67
2018-10-06T13:14:57.928Z,5.80
2018-10-06T13:17:29.129Z,6.40
2018-10-06T13:20:00.338Z,6.03
2018-10-06T13:22:31.781Z,6.10
2018-10-06T13:25:03.404Z,6.57
2018-10-06T13:27:34.748Z,7.87
2018-10-06T13:30:06.782Z,10.93
2018-10-06T13:32:38.052Z,7.03
2018-10-06T13:35:09.551Z,10.53
2018-10-06T13:37:40.650Z,8.80
2018-10-06T13:40:11.930Z,6.30
2018-10-06T13:42:43.276Z,5.97
2018-10-06T13:45:14.597Z,6.70
2018-10-06T13:47:46.097Z,10.37
2018-10-06T13:50:17.202Z,6.97
2018-10-06T13:52:48.844Z,7.67
2018-10-06T13:55:20.179Z,8.37
2018-10-06T13:57:51.793Z,7.20
2018-10-06T14:00:23.182Z,6.90
2018-10-06T14:02:54.454Z,6.17
2018-10-06T14:05:25.579Z,6.20
2018-10-06T14:07:56.987Z,9.30
2018-10-06T14:10:28.645Z,9.20
2018-10-06T14:12:59.719Z,5.40
2018-10-06T14:15:31.034Z,7.10
2018-10-06T14:18:02.244Z,7.30
2018-10-06T14:20:33.453Z,8.47
2018-10-06T14:23:04.631Z,7.47
2018-10-06T14:25:35.647Z,4.37
2018-10-06T14:28:06.998Z,5.57
2018-10-06T14:30:38.246Z,8.03
2018-10-06T14:33:09.860Z,7.00
2018-10-06T14:35:41.256Z,7.37
2018-10-06T14:38:12.585Z,7.97
2018-10-06T14:40:44.114Z,8.93
2018-10-06T14:43:15.157Z,7.33
2018-10-06T14:45:46.381Z,6.57
2018-10-06T14:48:17.382Z,7.93
2018-10-06T14:50:48.733Z,6.53
2018-10-06T14:53:19.915Z,11.47
2018-10-06T14:55:51.116Z,6.20
2018-10-06T14:58:22.142Z,10.63
2018-10-06T15:00:53.505Z,7.07
2018-10-06T15:03:25.164Z,7.40
2018-10-06T15:05:56.267Z,6.87
2018-10-06T15:08:27.455Z,6.63
2018-10-06T15:10:58.761Z,8.00
2018-10-06T15:13:30.325Z,9.47
2018-10-06T15:16:01.918Z,8.87
2018-10-06T15:18:33.000Z,12.33
2018-10-06T15:21:04.500Z,8.87
2018-10-06T15:23:36.120Z,7.47
2018-10-06T15:26:07.405Z,5.67
2018-10-06T15:28:38.575Z,7.37
2018-10-06T15:31:09.927Z,9.83
2018-10-06T15:33:41.145Z,7.67
2018-10-06T15:36:12.874Z,7.03
2018-10-06T15:38:44.214Z,7.20
2018-10-06T15:41:15.362Z,10.27
2018-10-06T15:43:47.016Z,11.00
2018-10-06T15:46:18.576Z,12.23
2018-10-06T15:48:49.933Z,8.13
2018-10-06T15:51:21.070Z,6.60
2018-10-06T15:53:52.552Z,10.30
2018-10-06T15:56:23.820Z,7.03
2018-10-06T15:58:55.050Z,8.17
2018-10-06T16:01:26.409Z,6.40
2018-10-06T16:03:57.432Z,7.10
2018-10-06T16:06:28.593Z,9.00
2018-10-06T16:09:00.589Z,8.03
2018-10-06T16:11:31.638Z,8.47
2018-10-06T16:14:03.304Z,9.67
2018-10-06T16:16:35.034Z,10.00
2018-10-06T16:19:06.144Z,22.67
2018-10-06T16:21:37.548Z,14.47
2018-10-06T16:24:08.768Z,14.10
2018-10-06T16:26:40.475Z,17.00
2018-10-06T16:29:11.539Z,15.17
2018-10-06T16:31:43.596Z,13.07
2018-10-06T16:34:14.865Z,15.50
2018-10-06T16:36:52.368Z,11.23
2018-10-06T16:39:23.556Z,11.10
2018-10-06T16:41:55.019Z,17.67
2018-10-06T16:44:26.991Z,18.60
2018-10-06T16:46:58.311Z,19.73
2018-10-06T16:49:29.508Z,20.73
2018-10-06T16:52:00.866Z,14.20
2018-10-06T16:54:32.269Z,18.70
2018-10-06T16:57:03.302Z,16.57
2018-10-06T16:59:34.806Z,11.77
2018-10-06T17:02:06.278Z,12.37
2018-10-06T17:04:37.440Z,11.93
2018-10-06T17:07:08.804Z,15.30
2018-10-06T17:09:39.987Z,11.20
2018-10-06T17:12:10.998Z,29.97
2018-10-06T17:14:42.375Z,12.43
2018-10-06T17:17:13.589Z,13.17
2018-10-06T17:19:44.548Z,15.97
2018-10-06T17:22:15.756Z,14.53
2018-10-06T17:24:46.952Z,12.47
2018-10-06T17:27:18.119Z,13.17
2018-10-06T17:29:49.464Z,20.13
2018-10-06T17:32:20.703Z,13.93
2018-10-06T17:34:51.948Z,13.90
2018-10-06T17:37:23.099Z,11.33
2018-10-06T17:39:54.683Z,10.33
2018-10-06T17:42:25.901Z,13.47
2018-10-06T17:44:57.088Z,14.77
2018-10-06T17:47:28.273Z,13.60
2018-10-06T17:49:59.487Z,14.53
2018-10-06T17:52:31.140Z,11.93
2018-10-06T17:55:02.689Z,13.80
2018-10-06T17:57:33.861Z,11.57
2018-10-06T18:00:05.227Z,11.30
2018-10-06T18:02:36.591Z,11.03
2018-10-06T18:05:07.664Z,11.77
2018-10-06T18:07:38.808Z,10.70
2018-10-06T18:10:11.035Z,12.87
2018-10-06T18:12:42.493Z,15.17
2018-10-06T18:15:13.520Z,11.00
2018-10-06T18:17:44.692Z,16.53
2018-10-06T18:20:16.007Z,17.07
2018-10-06T18:22:47.594Z,23.03
2018-10-06T18:25:19.184Z,16.80
2018-10-06T18:27:50.747Z,16.40
2018-10-06T18:30:22.815Z,22.20
2018-10-06T18:32:53.905Z,19.83
2018-10-06T18:35:25.298Z,27.33
2018-10-06T18:37:56.691Z,31.33
2018-10-06T18:40:29.060Z,25.60
2018-10-06T18:43:00.930Z,30.27
2018-10-06T18:45:31.958Z,35.13
2018-10-06T18:48:02.961Z,32.23
2018-10-06T18:50:34.172Z,28.83
2018-10-06T18:53:05.548Z,27.23
2018-10-06T18:55:37.162Z,28.60
2018-10-06T18:58:08.515Z,28.50
2018-10-06T19:00:39.544Z,23.70
2018-10-06T19:03:11.055Z,23.50
2018-10-06T19:05:42.102Z,24.40
2018-10-06T19:08:14.133Z,22.00
2018-10-06T19:10:45.761Z,20.90
2018-10-06T19:13:16.828Z,11.63
2018-10-06T19:15:48.010Z,11.53
2018-10-06T19:18:19.219Z,7.50
2018-10-06T19:20:50.677Z,5.87
2018-10-06T19:23:22.065Z,7.03
2018-10-06T19:25:53.652Z,11.00
2018-10-06T19:28:24.968Z,8.60
2018-10-06T19:30:56.202Z,14.77
2018-10-06T19:33:27.399Z,14.73
2018-10-06T19:35:58.758Z,13.80
2018-10-06T19:38:29.928Z,12.50
2018-10-06T19:41:01.132Z,10.57
2018-10-06T19:43:32.809Z,14.33
2018-10-06T19:46:04.096Z,9.93
2018-10-06T19:48:35.090Z,13.87
2018-10-06T19:51:06.120Z,11.17
2018-10-06T19:53:37.465Z,11.87
2018-10-06T19:56:08.670Z,14.93
2018-10-06T19:58:40.297Z,13.87
2018-10-06T20:01:11.626Z,14.03
2018-10-06T20:03:42.740Z,16.77
2018-10-06T20:06:13.796Z,13.33
2018-10-06T20:08:44.842Z,9.13
2018-10-06T20:11:16.291Z,10.13
2018-10-06T20:13:48.063Z,8.37
2018-10-06T20:16:19.664Z,11.17
2018-10-06T20:18:50.797Z,11.03
2018-10-06T20:21:22.400Z,9.13
2018-10-06T20:23:53.748Z,8.93
2018-10-06T20:26:25.019Z,7.03
2018-10-06T20:28:56.355Z,4.73
2018-10-06T20:31:27.702Z,8.53
2018-10-06T20:33:58.940Z,8.13
2018-10-06T20:36:30.384Z,7.23
2018-10-06T20:39:01.648Z,5.40
2018-10-06T20:41:32.884Z,6.03
2018-10-06T20:44:04.360Z,5.40
2018-10-06T20:46:35.531Z,5.00
2018-10-06T20:49:06.648Z,7.13
2018-10-06T20:51:37.844Z,4.77
2018-10-06T20:54:09.221Z,7.20
2018-10-06T20:56:40.632Z,5.67
2018-10-06T20:59:11.820Z,5.33
2018-10-06T21:01:43.233Z,3.40
2018-10-06T21:04:14.628Z,2.93
2018-10-06T21:06:46.035Z,6.17
2018-10-06T21:09:17.335Z,5.80
2018-10-06T21:11:48.565Z,3.83
2018-10-06T21:14:19.913Z,4.63
2018-10-06T21:16:51.126Z,7.37
2018-10-06T21:19:23.018Z,5.07
2018-10-06T21:21:54.132Z,8.90
2018-10-06T21:24:25.311Z,7.33
2018-10-06T21:26:56.761Z,4.23
2018-10-06T21:29:28.088Z,4.73
2018-10-06T21:31:59.458Z,5.03
2018-10-06T21:34:31.221Z,8.73
2018-10-06T21:37:02.715Z,6.30
2018-10-06T21:39:34.386Z,5.13
2018-10-06T21:42:05.631Z,9.80
2018-10-06T21:44:36.789Z,5.40
2018-10-06T21:47:08.468Z,4.30
2018-10-06T21:49:40.223Z,3.83
2018-10-06T21:52:11.392Z,4.43
2018-10-06T21:54:42.725Z,4.07
2018-10-06T21:57:13.929Z,2.20
2018-10-06T21:59:45.495Z,6.90
2018-10-06T22:02:16.694Z,3.67
2018-10-06T22:04:47.926Z,4.20
2018-10-06T22:07:19.103Z,3.87
2018-10-06T22:09:50.457Z,5.07
2018-10-06T22:12:21.656Z,4.93
2018-10-06T22:14:52.916Z,4.23
2018-10-06T22:17:24.368Z,4.17
2018-10-06T22:19:56.274Z,3.37
2018-10-06T22:22:27.424Z,5.43
2018-10-06T22:24:58.604Z,5.43
2018-10-06T22:27:29.810Z,6.43
2018-10-06T22:30:01.778Z,4.67
2018-10-06T22:32:33.263Z,5.13
2018-10-06T22:35:04.764Z,3.87
2018-10-06T22:37:36.120Z,7.77
2018-10-06T22:40:08.024Z,4.33
2018-10-06T22:42:39.338Z,6.37
2018-10-06T22:45:10.529Z,7.57
2018-10-06T22:47:41.871Z,6.47
2018-10-06T22:50:13.164Z,4.93
2018-10-06T22:52:44.471Z,6.13
2018-10-06T22:55:16.082Z,7.63
2018-10-06T22:57:47.435Z,6.60
2018-10-06T23:00:18.632Z,10.73
2018-10-06T23:02:49.627Z,10.37
2018-10-06T23:05:20.846Z,6.33
2018-10-06T23:07:52.050Z,3.70
2018-10-06T23:10:23.496Z,8.10
2018-10-06T23:12:54.767Z,7.27
2018-10-06T23:15:25.955Z,8.20
2018-10-06T23:17:57.152Z,9.90
2018-10-06T23:20:28.552Z,10.07
2018-10-06T23:23:00.006Z,6.40
2018-10-06T23:25:31.600Z,9.27
2018-10-06T23:28:02.802Z,11.03
2018-10-06T23:30:33.948Z,6.03
2018-10-06T23:33:05.391Z,7.90
2018-10-06T23:35:36.689Z,9.73
2018-10-06T23:38:07.893Z,6.23
2018-10-06T23:40:38.867Z,7.13
2018-10-06T23:43:10.539Z,9.33
2018-10-06T23:45:42.449Z,8.07
2018-10-06T23:48:13.635Z,7.83
2018-10-06T23:50:44.846Z,9.20
2018-10-06T23:53:16.018Z,7.20
2018-10-06T23:55:47.369Z,7.23
2018-10-06T23:58:18.577Z,5.90
